createdAt,value
2017-04-25T00:00:12.871Z,19.88
2017-04-25T00:01:15.746Z,19.88
2017-04-25T00:02:11.818Z,19.88
2017-04-25T00:03:11.961Z,19.87
2017-04-25T00:04:11.995Z,19.87
2017-04-25T00:05:12.123Z,19.87
2017-04-25T00:06:12.229Z,19.87
2017-04-25T00:07:12.013Z,19.87
2017-04-25T00:08:12.267Z,19.88
2017-04-25T00:09:14.057Z,19.87
2017-04-25T00:10:12.248Z,19.87
2017-04-25T00:11:13.257Z,19.88
2017-04-25T00:12:13.936Z,19.87
2017-04-25T00:13:13.341Z,19.87
2017-04-25T00:14:12.320Z,19.88
2017-04-25T00:15:14.544Z,19.88
2017-04-25T00:16:10.417Z,19.86
2017-04-25T00:17:14.440Z,19.88
2017-04-25T00:18:12.850Z,19.90
2017-04-25T00:19:12.040Z,20.40
2017-04-25T00:20:12.832Z,20.45
2017-04-25T00:21:12.574Z,20.46
2017-04-25T00:22:12.591Z,20.49
2017-04-25T00:23:11.811Z,20.16
2017-04-25T00:24:11.990Z,19.96
2017-04-25T00:25:13.207Z,19.92
2017-04-25T00:26:14.035Z,19.90
2017-04-25T00:27:12.843Z,19.88
2017-04-25T00:28:12.181Z,19.93
2017-04-25T00:29:12.250Z,19.88
2017-04-25T00:30:13.963Z,19.87
2017-04-25T00:31:10.945Z,19.87
2017-04-25T00:32:14.132Z,19.87
2017-04-25T00:33:13.694Z,19.88
2017-04-25T00:34:11.742Z,19.87
2017-04-25T00:35:12.551Z,19.87
2017-04-25T00:36:13.469Z,19.87
2017-04-25T00:37:12.551Z,19.87
2017-04-25T00:38:12.253Z,19.87
2017-04-25T00:39:13.171Z,19.88
2017-04-25T00:40:12.834Z,19.87
2017-04-25T00:41:11.977Z,19.88
2017-04-25T00:42:13.784Z,19.87
2017-04-25T00:43:12.599Z,19.88
2017-04-25T00:44:12.153Z,19.88
2017-04-25T00:45:12.682Z,19.87
2017-04-25T00:46:10.196Z,19.87
2017-04-25T00:47:13.620Z,19.88
2017-04-25T00:48:12.238Z,19.87
2017-04-25T00:49:12.440Z,19.88
2017-04-25T00:50:12.392Z,19.87
2017-04-25T00:51:10.451Z,19.87
2017-04-25T00:52:13.435Z,19.87
2017-04-25T00:53:13.223Z,19.91
2017-04-25T00:54:12.656Z,20.39
2017-04-25T00:55:12.926Z,20.45
2017-04-25T00:56:12.085Z,20.47
2017-04-25T00:57:12.031Z,20.14
2017-04-25T00:58:10.066Z,19.96
2017-04-25T00:59:12.836Z,19.92
2017-04-25T01:00:14.065Z,19.90
2017-04-25T01:01:12.578Z,19.90
2017-04-25T01:02:13.171Z,19.92
2017-04-25T01:03:13.181Z,20.41
2017-04-25T01:04:13.925Z,20.47
2017-04-25T01:05:12.625Z,20.49
2017-04-25T01:06:12.590Z,20.51
2017-04-25T01:07:12.450Z,20.50
2017-04-25T01:08:13.250Z,20.50
2017-04-25T01:09:13.258Z,20.51
2017-04-25T01:10:12.436Z,20.52
2017-04-25T01:11:10.477Z,20.50
2017-04-25T01:12:11.942Z,20.19
2017-04-25T01:13:12.807Z,19.99
2017-04-25T01:14:13.731Z,19.94
2017-04-25T01:15:13.185Z,19.91
2017-04-25T01:16:12.416Z,19.90
2017-04-25T01:17:14.260Z,19.90
2017-04-25T01:18:12.408Z,19.90
2017-04-25T01:19:12.988Z,19.90
2017-04-25T01:20:14.711Z,19.88
2017-04-25T01:21:11.740Z,19.88
2017-04-25T01:22:11.927Z,19.88
2017-04-25T01:23:12.621Z,19.92
2017-04-25T01:24:12.423Z,19.88
2017-04-25T01:25:14.027Z,19.88
2017-04-25T01:26:13.430Z,19.88
2017-04-25T01:27:13.004Z,19.88
2017-04-25T01:28:12.677Z,19.94
2017-04-25T01:29:11.675Z,19.88
2017-04-25T01:30:11.861Z,19.88
2017-04-25T01:31:11.797Z,19.88
2017-04-25T01:32:13.403Z,19.88
2017-04-25T01:33:13.658Z,19.88
2017-04-25T01:34:12.407Z,19.88
2017-04-25T01:35:11.421Z,19.87
2017-04-25T01:36:13.801Z,20.41
2017-04-25T01:37:13.278Z,20.46
2017-04-25T01:38:13.117Z,19.96
2017-04-25T01:39:13.770Z,19.92
2017-04-25T01:40:12.907Z,19.90
2017-04-25T01:41:14.642Z,19.89
2017-04-25T01:42:10.242Z,19.88
2017-04-25T01:43:14.658Z,19.88
2017-04-25T01:44:12.749Z,19.89
2017-04-25T01:45:12.560Z,19.89
2017-04-25T01:46:14.264Z,19.88
2017-04-25T01:47:14.399Z,19.88
2017-04-25T01:48:11.421Z,19.88
2017-04-25T01:49:13.709Z,19.89
2017-04-25T01:50:13.779Z,19.88
2017-04-25T01:51:12.988Z,19.88
2017-04-25T01:52:14.069Z,19.88
2017-04-25T01:53:12.776Z,19.88
2017-04-25T01:54:12.584Z,19.88
2017-04-25T01:55:12.416Z,19.87
2017-04-25T01:56:12.719Z,19.87
2017-04-25T01:57:11.720Z,19.88
2017-04-25T01:58:12.022Z,19.88
2017-04-25T01:59:12.815Z,19.88
2017-04-25T02:00:11.901Z,19.89
2017-04-25T02:01:12.012Z,19.88
2017-04-25T02:02:13.946Z,19.88
2017-04-25T02:03:12.230Z,19.88
2017-04-25T02:04:13.317Z,19.89
2017-04-25T02:05:13.428Z,19.88
2017-04-25T02:06:12.790Z,19.88
2017-04-25T02:07:11.019Z,19.88
2017-04-25T02:08:12.833Z,19.88
2017-04-25T02:09:12.414Z,19.90
2017-04-25T02:10:13.168Z,19.88
2017-04-25T02:11:13.096Z,19.88
2017-04-25T02:12:12.950Z,19.88
2017-04-25T02:13:13.600Z,19.88
2017-04-25T02:14:10.473Z,19.88
2017-04-25T02:15:12.602Z,20.42
2017-04-25T02:16:11.649Z,20.46
2017-04-25T02:17:12.022Z,19.96
2017-04-25T02:18:12.174Z,19.92
2017-04-25T02:19:13.127Z,19.91
2017-04-25T02:20:12.617Z,19.90
2017-04-25T02:21:13.409Z,19.89
2017-04-25T02:22:14.009Z,19.90
2017-04-25T02:23:10.613Z,19.89
2017-04-25T02:24:12.800Z,20.42
2017-04-25T02:25:11.726Z,20.46
2017-04-25T02:26:12.348Z,20.00
2017-04-25T02:27:09.936Z,19.92
2017-04-25T02:28:12.258Z,19.90
2017-04-25T02:29:13.095Z,19.90
2017-04-25T02:30:10.551Z,19.89
2017-04-25T02:31:13.147Z,19.90
2017-04-25T02:32:12.416Z,19.90
2017-04-25T02:33:13.328Z,19.88
2017-04-25T02:34:12.490Z,19.88
2017-04-25T02:35:13.437Z,19.89
2017-04-25T02:36:12.683Z,19.90
2017-04-25T02:37:13.258Z,19.92
2017-04-25T02:38:13.236Z,20.41
2017-04-25T02:39:13.188Z,20.47
2017-04-25T02:40:12.727Z,19.96
2017-04-25T02:41:09.936Z,19.92
2017-04-25T02:42:12.767Z,19.95
2017-04-25T02:43:11.791Z,19.91
2017-04-25T02:44:12.651Z,19.90
2017-04-25T02:45:12.410Z,19.89
2017-04-25T02:46:12.421Z,19.90
2017-04-25T02:47:14.066Z,19.89
2017-04-25T02:48:12.089Z,19.90
2017-04-25T02:49:13.600Z,19.89
2017-04-25T02:50:12.763Z,19.89
2017-04-25T02:51:12.430Z,19.88
2017-04-25T02:52:14.121Z,19.89
2017-04-25T02:53:12.844Z,19.91
2017-04-25T02:54:12.579Z,19.89
2017-04-25T02:55:11.524Z,19.89
2017-04-25T02:56:12.189Z,19.89
2017-04-25T02:57:12.244Z,19.88
2017-04-25T02:58:12.825Z,19.89
2017-04-25T02:59:12.615Z,19.89
2017-04-25T03:00:12.571Z,19.89
2017-04-25T03:01:13.544Z,19.90
2017-04-25T03:02:12.628Z,19.89
2017-04-25T03:03:11.681Z,19.90
2017-04-25T03:04:13.332Z,19.94
2017-04-25T03:05:12.426Z,19.89
2017-04-25T03:06:13.369Z,19.90
2017-04-25T03:07:12.441Z,19.90
2017-04-25T03:08:12.511Z,19.89
2017-04-25T03:09:11.088Z,19.89
2017-04-25T03:10:12.623Z,20.07
2017-04-25T03:11:14.697Z,19.94
2017-04-25T03:12:12.012Z,19.92
2017-04-25T03:13:14.722Z,19.90
2017-04-25T03:14:12.179Z,19.90
2017-04-25T03:15:13.218Z,19.90
2017-04-25T03:16:13.084Z,19.90
2017-04-25T03:17:13.970Z,19.89
2017-04-25T03:18:12.828Z,19.89
2017-04-25T03:19:12.706Z,19.90
2017-04-25T03:20:13.037Z,19.92
2017-04-25T03:21:12.981Z,19.90
2017-04-25T03:22:13.941Z,19.89
2017-04-25T03:23:12.901Z,19.90
2017-04-25T03:24:13.038Z,19.93
2017-04-25T03:25:12.506Z,19.90
2017-04-25T03:26:11.918Z,19.90
2017-04-25T03:27:13.090Z,19.90
2017-04-25T03:28:12.581Z,19.94
2017-04-25T03:29:12.722Z,19.89
2017-04-25T03:30:13.578Z,19.89
2017-04-25T03:31:12.629Z,19.90
2017-04-25T03:32:11.807Z,19.90
2017-04-25T03:33:12.398Z,19.96
2017-04-25T03:34:13.499Z,19.90
2017-04-25T03:35:12.561Z,19.90
2017-04-25T03:36:11.608Z,19.90
2017-04-25T03:37:10.450Z,19.89
2017-04-25T03:38:11.627Z,19.90
2017-04-25T03:39:12.096Z,19.94
2017-04-25T03:40:12.115Z,19.90
2017-04-25T03:41:14.870Z,19.89
2017-04-25T03:42:12.866Z,19.90
2017-04-25T03:43:12.269Z,19.90
2017-04-25T03:44:13.156Z,19.90
2017-04-25T03:45:14.482Z,19.90
2017-04-25T03:46:13.092Z,19.95
2017-04-25T03:47:14.049Z,19.90
2017-04-25T03:48:12.239Z,19.90
2017-04-25T03:49:13.971Z,19.90
2017-04-25T03:50:11.881Z,19.90
2017-04-25T03:51:12.671Z,19.91
2017-04-25T03:52:12.368Z,19.90
2017-04-25T03:53:12.620Z,19.91
2017-04-25T03:54:12.271Z,19.94
2017-04-25T03:55:13.232Z,19.90
2017-04-25T03:56:14.864Z,19.90
2017-04-25T03:57:10.843Z,19.90
2017-04-25T03:58:12.207Z,19.91
2017-04-25T03:59:12.278Z,19.90
2017-04-25T04:00:12.331Z,19.91
2017-04-25T04:01:12.238Z,19.91
2017-04-25T04:02:12.868Z,19.91
2017-04-25T04:03:11.916Z,19.92
2017-04-25T04:04:13.205Z,19.90
2017-04-25T04:05:13.499Z,19.91
2017-04-25T04:06:11.161Z,19.91
2017-04-25T04:07:12.125Z,19.91
2017-04-25T04:08:12.781Z,19.93
2017-04-25T04:09:11.838Z,19.91
2017-04-25T04:10:12.019Z,19.91
2017-04-25T04:11:13.391Z,19.98
2017-04-25T04:12:12.549Z,19.91
2017-04-25T04:13:09.821Z,19.91
2017-04-25T04:14:12.287Z,19.91
2017-04-25T04:15:12.408Z,19.92
2017-04-25T04:16:13.514Z,19.91
2017-04-25T04:17:13.722Z,19.91
2017-04-25T04:18:12.251Z,19.93
2017-04-25T04:19:12.320Z,19.91
2017-04-25T04:20:13.038Z,19.92
2017-04-25T04:21:12.006Z,19.91
2017-04-25T04:22:12.130Z,19.91
2017-04-25T04:23:12.150Z,19.92
2017-04-25T04:24:12.479Z,19.91
2017-04-25T04:25:14.423Z,19.91
2017-04-25T04:26:13.869Z,19.91
2017-04-25T04:27:11.937Z,19.91
2017-04-25T04:28:12.017Z,19.91
2017-04-25T04:29:13.188Z,19.91
2017-04-25T04:30:12.510Z,19.92
2017-04-25T04:31:12.656Z,19.92
2017-04-25T04:32:13.106Z,19.91
2017-04-25T04:33:12.106Z,19.92
2017-04-25T04:34:13.589Z,19.94
2017-04-25T04:35:11.762Z,19.92
2017-04-25T04:36:11.906Z,19.92
2017-04-25T04:37:13.294Z,19.92
2017-04-25T04:38:12.862Z,19.92
2017-04-25T04:39:11.843Z,19.92
2017-04-25T04:40:13.119Z,19.92
2017-04-25T04:41:12.353Z,19.92
2017-04-25T04:42:13.026Z,19.91
2017-04-25T04:43:12.941Z,19.92
2017-04-25T04:44:10.648Z,19.91
2017-04-25T04:45:12.685Z,19.92
2017-04-25T04:46:17.694Z,19.91
2017-04-25T04:47:11.763Z,19.92
2017-04-25T04:48:13.835Z,19.92
2017-04-25T04:49:12.409Z,19.92
2017-04-25T04:50:14.045Z,19.92
2017-04-25T04:51:12.077Z,19.92
2017-04-25T04:52:13.003Z,19.93
2017-04-25T04:53:10.750Z,19.92
2017-04-25T04:54:13.517Z,19.95
2017-04-25T04:55:11.765Z,19.92
2017-04-25T04:56:11.907Z,19.92
2017-04-25T04:57:12.766Z,19.92
2017-04-25T04:58:12.556Z,19.92
2017-04-25T04:59:10.741Z,19.92
2017-04-25T05:00:12.641Z,19.92
2017-04-25T05:01:12.296Z,19.94
2017-04-25T05:02:12.455Z,19.92
2017-04-25T05:03:13.005Z,19.93
2017-04-25T05:04:10.880Z,19.92
2017-04-25T05:05:12.237Z,19.92
2017-04-25T05:06:11.672Z,19.92
2017-04-25T05:07:12.234Z,19.97
2017-04-25T05:08:12.828Z,19.93
2017-04-25T05:09:12.609Z,19.92
2017-04-25T05:10:10.674Z,19.92
2017-04-25T05:11:12.875Z,20.46
2017-04-25T05:12:12.631Z,20.51
2017-04-25T05:13:11.607Z,20.53
2017-04-25T05:14:12.413Z,20.55
2017-04-25T05:15:13.277Z,20.54
2017-04-25T05:16:12.919Z,20.56
2017-04-25T05:17:12.854Z,20.57
2017-04-25T05:18:11.964Z,20.57
2017-04-25T05:19:12.401Z,20.57
2017-04-25T05:20:14.041Z,20.57
2017-04-25T05:21:12.205Z,20.57
2017-04-25T05:22:13.468Z,20.28
2017-04-25T05:23:13.144Z,20.09
2017-04-25T05:24:12.380Z,19.99
2017-04-25T05:25:12.456Z,19.97
2017-04-25T05:26:14.293Z,19.96
2017-04-25T05:27:12.806Z,19.95
2017-04-25T05:28:12.460Z,19.98
2017-04-25T05:29:13.761Z,19.93
2017-04-25T05:30:11.979Z,19.94
2017-04-25T05:31:12.627Z,19.96
2017-04-25T05:32:11.709Z,19.94
2017-04-25T05:33:12.279Z,20.00
2017-04-25T05:34:12.470Z,19.93
2017-04-25T05:35:14.024Z,19.93
2017-04-25T05:36:13.801Z,19.93
2017-04-25T05:37:11.704Z,19.94
2017-04-25T05:38:12.405Z,19.94
2017-04-25T05:39:12.804Z,19.98
2017-04-25T05:40:12.616Z,19.93
2017-04-25T05:41:10.640Z,19.93
2017-04-25T05:42:10.579Z,19.93
2017-04-25T05:43:12.549Z,19.96
2017-04-25T05:44:13.262Z,19.93
2017-04-25T05:45:13.883Z,19.94
2017-04-25T05:46:12.162Z,19.94
2017-04-25T05:47:12.885Z,19.99
2017-04-25T05:48:12.067Z,19.93
2017-04-25T05:49:12.638Z,20.00
2017-04-25T05:50:11.561Z,19.94
2017-04-25T05:51:13.421Z,19.94
2017-04-25T05:52:13.024Z,19.98
2017-04-25T05:53:12.406Z,19.94
2017-04-25T05:54:13.059Z,19.94
2017-04-25T05:55:12.015Z,20.14
2017-04-25T05:56:10.901Z,19.99
2017-04-25T05:57:12.235Z,19.97
2017-04-25T05:58:12.509Z,19.96
2017-04-25T05:59:12.893Z,19.99
2017-04-25T06:00:11.912Z,19.95
2017-04-25T06:01:12.601Z,19.95
2017-04-25T06:02:12.314Z,19.98
2017-04-25T06:03:13.134Z,19.94
2017-04-25T06:04:12.277Z,19.94
2017-04-25T06:05:12.367Z,19.94
2017-04-25T06:06:12.670Z,19.94
2017-04-25T06:07:12.877Z,19.94
2017-04-25T06:08:12.608Z,19.99
2017-04-25T06:09:14.472Z,19.94
2017-04-25T06:10:12.524Z,19.94
2017-04-25T06:11:12.420Z,19.94
2017-04-25T06:12:12.446Z,19.95
2017-04-25T06:13:12.680Z,19.94
2017-04-25T06:14:12.234Z,19.97
2017-04-25T06:15:12.827Z,19.95
2017-04-25T06:16:12.505Z,19.94
2017-04-25T06:17:13.101Z,19.95
2017-04-25T06:18:13.476Z,19.95
2017-04-25T06:19:13.580Z,19.95
2017-04-25T06:20:11.356Z,19.94
2017-04-25T06:21:12.826Z,19.99
2017-04-25T06:22:11.988Z,19.95
2017-04-25T06:23:12.615Z,19.98
2017-04-25T06:24:13.649Z,19.95
2017-04-25T06:25:11.737Z,19.95
2017-04-25T06:26:12.015Z,19.95
2017-04-25T06:27:12.090Z,19.96
2017-04-25T06:28:12.988Z,19.95
2017-04-25T06:29:12.306Z,19.96
2017-04-25T06:30:12.230Z,19.95
2017-04-25T06:31:12.250Z,19.95
2017-04-25T06:32:12.277Z,19.95
2017-04-25T06:33:13.022Z,19.96
2017-04-25T06:34:13.061Z,19.95
2017-04-25T06:35:12.022Z,19.95
2017-04-25T06:36:12.822Z,19.99
2017-04-25T06:37:11.816Z,19.95
2017-04-25T06:38:12.863Z,19.96
2017-04-25T06:39:12.604Z,19.96
2017-04-25T06:40:10.231Z,19.95
2017-04-25T06:41:11.619Z,19.96
2017-04-25T06:42:12.071Z,19.99
2017-04-25T06:43:12.656Z,19.96
2017-04-25T06:44:11.735Z,19.95
2017-04-25T06:45:12.490Z,19.97
2017-04-25T06:46:13.261Z,20.48
2017-04-25T06:47:13.143Z,20.05
2017-04-25T06:48:12.279Z,20.52
2017-04-25T06:49:12.888Z,20.21
2017-04-25T06:50:10.621Z,20.05
2017-04-25T06:51:12.215Z,20.01
2017-04-25T06:52:10.885Z,19.99
2017-04-25T06:53:10.669Z,19.98
2017-04-25T06:54:12.648Z,20.02
2017-04-25T06:55:13.500Z,19.96
2017-04-25T06:56:12.854Z,19.97
2017-04-25T06:57:12.881Z,19.97
2017-04-25T06:58:13.446Z,20.49
2017-04-25T06:59:11.282Z,20.55
2017-04-25T07:00:11.672Z,20.57
2017-04-25T07:01:11.838Z,20.58
2017-04-25T07:02:12.510Z,20.58
2017-04-25T07:03:13.098Z,20.58
2017-04-25T07:04:12.893Z,20.61
2017-04-25T07:05:11.812Z,20.61
2017-04-25T07:06:12.610Z,20.60
2017-04-25T07:07:11.691Z,20.08
2017-04-25T07:08:11.774Z,20.03
2017-04-25T07:09:10.876Z,19.99
2017-04-25T07:10:13.177Z,19.98
2017-04-25T07:11:13.348Z,19.98
2017-04-25T07:12:12.836Z,20.01
2017-04-25T07:13:12.717Z,19.97
2017-04-25T07:14:12.429Z,19.99
2017-04-25T07:15:13.974Z,19.96
2017-04-25T07:16:13.578Z,19.96
2017-04-25T07:17:13.509Z,19.94
2017-04-25T07:18:14.037Z,19.96
2017-04-25T07:19:12.822Z,19.96
2017-04-25T07:20:12.468Z,19.96
2017-04-25T07:21:12.914Z,20.01
2017-04-25T07:22:11.945Z,19.95
2017-04-25T07:23:12.886Z,19.96
2017-04-25T07:24:12.412Z,19.98
2017-04-25T07:25:12.947Z,20.00
2017-04-25T07:26:10.911Z,19.95
2017-04-25T07:27:12.168Z,19.96
2017-04-25T07:28:12.626Z,19.99
2017-04-25T07:29:11.723Z,19.96
2017-04-25T07:30:14.678Z,19.96
2017-04-25T07:31:12.231Z,19.95
2017-04-25T07:32:15.210Z,19.95
2017-04-25T07:33:13.000Z,19.95
2017-04-25T07:34:12.140Z,19.95
2017-04-25T07:35:14.262Z,19.95
2017-04-25T07:36:12.407Z,19.95
2017-04-25T07:37:12.473Z,19.95
2017-04-25T07:38:13.177Z,19.95
2017-04-25T07:39:12.221Z,19.94
2017-04-25T07:40:13.078Z,19.94
2017-04-25T07:41:13.997Z,19.94
2017-04-25T07:42:12.687Z,19.94
2017-04-25T07:43:11.495Z,19.94
2017-04-25T07:44:12.583Z,19.94
2017-04-25T07:45:14.331Z,19.93
2017-04-25T07:46:12.986Z,19.94
2017-04-25T07:47:12.040Z,19.94
2017-04-25T07:48:12.959Z,19.94
2017-04-25T07:49:12.617Z,19.93
2017-04-25T07:50:12.594Z,19.94
2017-04-25T07:51:11.625Z,19.94
2017-04-25T07:52:12.256Z,19.93
2017-04-25T07:53:12.836Z,19.93
2017-04-25T07:54:12.705Z,19.96
2017-04-25T07:55:12.571Z,19.93
2017-04-25T07:56:12.539Z,19.93
2017-04-25T07:57:12.624Z,19.93
2017-04-25T07:58:12.067Z,19.96
2017-04-25T07:59:12.015Z,19.93
2017-04-25T08:00:10.874Z,19.94
2017-04-25T08:01:13.767Z,19.93
2017-04-25T08:02:10.113Z,19.93
2017-04-25T08:03:13.984Z,19.93
2017-04-25T08:04:12.557Z,19.95
2017-04-25T08:05:10.496Z,19.93
2017-04-25T08:06:12.817Z,20.45
2017-04-25T08:07:11.724Z,20.52
2017-04-25T08:08:11.773Z,20.54
2017-04-25T08:09:11.918Z,20.56
2017-04-25T08:10:12.637Z,20.08
2017-04-25T08:11:10.155Z,20.00
2017-04-25T08:12:12.646Z,20.52
2017-04-25T08:13:12.415Z,20.03
2017-04-25T08:14:12.636Z,20.00
2017-04-25T08:15:13.076Z,20.03
2017-04-25T08:16:12.647Z,20.03
2017-04-25T08:17:09.996Z,20.01
2017-04-25T08:18:13.867Z,20.05
2017-04-25T08:19:11.883Z,20.07
2017-04-25T08:20:13.545Z,20.07
2017-04-25T08:21:12.833Z,20.08
2017-04-25T08:22:11.885Z,20.09
2017-04-25T08:23:12.076Z,20.09
2017-04-25T08:24:13.902Z,20.09
2017-04-25T08:25:12.016Z,20.09
2017-04-25T08:26:13.894Z,20.09
2017-04-25T08:27:12.602Z,20.09
2017-04-25T08:28:12.254Z,20.14
2017-04-25T08:29:12.464Z,20.10
2017-04-25T08:30:13.252Z,20.09
2017-04-25T08:31:14.164Z,20.09
2017-04-25T08:32:13.098Z,20.08
2017-04-25T08:33:13.155Z,20.07
2017-04-25T08:34:13.134Z,20.08
2017-04-25T08:35:12.317Z,20.07
2017-04-25T08:36:13.907Z,20.07
2017-04-25T08:37:12.727Z,20.07
2017-04-25T08:38:12.622Z,20.08
2017-04-25T08:39:13.046Z,20.10
2017-04-25T08:40:12.241Z,20.09
2017-04-25T08:41:14.159Z,20.08
2017-04-25T08:42:12.337Z,20.09
2017-04-25T08:43:13.138Z,20.15
2017-04-25T08:44:13.804Z,20.09
2017-04-25T08:45:10.169Z,20.09
2017-04-25T08:46:12.833Z,20.10
2017-04-25T08:47:13.065Z,20.09
2017-04-25T08:48:12.135Z,20.09
2017-04-25T08:49:12.288Z,20.09
2017-04-25T08:50:12.406Z,20.08
2017-04-25T08:51:14.108Z,20.08
2017-04-25T08:52:12.585Z,20.12
2017-04-25T08:53:12.265Z,20.08
2017-04-25T08:54:12.230Z,20.08
2017-04-25T08:55:12.288Z,20.09
2017-04-25T08:56:13.127Z,20.08
2017-04-25T08:57:13.045Z,20.08
2017-04-25T08:58:12.235Z,20.08
2017-04-25T08:59:12.299Z,20.06
2017-04-25T09:00:14.946Z,20.08
2017-04-25T09:01:12.241Z,20.07
2017-04-25T09:02:15.717Z,20.07
2017-04-25T09:03:12.513Z,20.07
2017-04-25T09:04:13.526Z,20.07
2017-04-25T09:05:12.493Z,20.07
2017-04-25T09:06:12.554Z,20.07
2017-04-25T09:07:14.548Z,20.06
2017-04-25T09:08:11.627Z,20.07
2017-04-25T09:09:12.397Z,20.07
2017-04-25T09:10:11.498Z,20.07
2017-04-25T09:11:13.275Z,20.10
2017-04-25T09:12:10.816Z,20.06
2017-04-25T09:13:13.416Z,20.06
2017-04-25T09:14:12.432Z,20.06
2017-04-25T09:15:12.589Z,20.07
2017-04-25T09:16:12.611Z,20.07
2017-04-25T09:17:12.645Z,20.12
2017-04-25T09:18:12.155Z,20.08
2017-04-25T09:19:13.991Z,20.07
2017-04-25T09:20:11.995Z,20.06
2017-04-25T09:21:13.353Z,20.06
2017-04-25T09:22:12.530Z,20.06
2017-04-25T09:23:11.344Z,20.06
2017-04-25T09:24:10.497Z,20.06
2017-04-25T09:25:13.460Z,20.22
2017-04-25T09:26:12.467Z,20.11
2017-04-25T09:27:12.932Z,20.15
2017-04-25T09:28:12.613Z,20.15
2017-04-25T09:29:12.236Z,20.08
2017-04-25T09:30:19.052Z,20.09
2017-04-25T09:31:14.055Z,20.10
2017-04-25T09:32:13.942Z,20.11
2017-04-25T09:33:12.650Z,20.15
2017-04-25T09:34:14.591Z,20.13
2017-04-25T09:35:12.261Z,20.18
2017-04-25T09:36:13.146Z,20.15
2017-04-25T09:37:12.848Z,20.16
2017-04-25T09:38:15.603Z,20.17
2017-04-25T09:39:12.409Z,20.19
2017-04-25T09:40:14.001Z,20.20
2017-04-25T09:41:12.611Z,20.22
2017-04-25T09:42:12.340Z,20.22
2017-04-25T09:43:10.341Z,20.23
2017-04-25T09:44:09.804Z,20.76
2017-04-25T09:45:12.987Z,20.85
2017-04-25T09:46:12.478Z,20.90
2017-04-25T09:47:12.642Z,20.40
2017-04-25T09:48:11.689Z,20.36
2017-04-25T09:49:11.849Z,20.37
2017-04-25T09:50:13.676Z,20.37
2017-04-25T09:51:12.341Z,20.39
2017-04-25T09:52:13.482Z,20.41
2017-04-25T09:53:13.058Z,20.43
2017-04-25T09:54:12.895Z,20.45
2017-04-25T09:55:10.764Z,20.47
2017-04-25T09:56:12.592Z,20.53
2017-04-25T09:57:12.240Z,20.52
2017-04-25T09:58:12.881Z,20.53
2017-04-25T09:59:10.596Z,20.54
2017-04-25T10:00:12.041Z,20.58
2017-04-25T10:01:12.250Z,20.59
2017-04-25T10:02:12.811Z,20.60
2017-04-25T10:03:10.828Z,20.61
2017-04-25T10:04:12.746Z,21.16
2017-04-25T10:05:12.306Z,20.92
2017-04-25T10:06:13.197Z,20.71
2017-04-25T10:07:12.234Z,20.68
2017-04-25T10:08:12.469Z,20.67
2017-04-25T10:09:13.338Z,20.67
2017-04-25T10:10:12.818Z,20.72
2017-04-25T10:11:10.660Z,20.67
2017-04-25T10:12:10.795Z,21.23
2017-04-25T10:13:12.594Z,21.28
2017-04-25T10:14:12.037Z,21.31
2017-04-25T10:15:13.689Z,21.35
2017-04-25T10:16:12.399Z,20.89
2017-04-25T10:17:13.130Z,20.82
2017-04-25T10:18:12.246Z,21.28
2017-04-25T10:19:14.812Z,21.35
2017-04-25T10:20:12.381Z,21.37
2017-04-25T10:21:14.362Z,21.02
2017-04-25T10:22:12.857Z,20.87
2017-04-25T10:23:11.959Z,20.84
2017-04-25T10:24:13.721Z,20.83
2017-04-25T10:25:09.128Z,20.83
2017-04-25T10:26:12.624Z,20.89
2017-04-25T10:27:13.474Z,20.83
2017-04-25T10:28:12.782Z,20.84
2017-04-25T10:29:11.786Z,20.85
2017-04-25T10:30:11.818Z,20.86
2017-04-25T10:31:09.067Z,20.87
2017-04-25T10:32:12.818Z,20.98
2017-04-25T10:33:12.111Z,20.94
2017-04-25T10:34:13.747Z,20.95
2017-04-25T10:35:12.454Z,20.94
2017-04-25T10:36:12.599Z,20.95
2017-04-25T10:37:11.634Z,20.96
2017-04-25T10:38:12.406Z,21.00
2017-04-25T10:39:13.420Z,20.97
2017-04-25T10:40:12.556Z,20.99
2017-04-25T10:41:13.119Z,21.05
2017-04-25T10:42:12.463Z,21.06
2017-04-25T10:43:12.767Z,21.01
2017-04-25T10:44:12.609Z,21.01
2017-04-25T10:45:12.403Z,21.10
2017-04-25T10:46:12.872Z,21.57
2017-04-25T10:47:12.939Z,21.63
2017-04-25T10:48:12.049Z,21.70
2017-04-25T10:49:12.146Z,21.22
2017-04-25T10:50:12.255Z,21.16
2017-04-25T10:51:12.709Z,21.21
2017-04-25T10:52:11.797Z,21.14
2017-04-25T10:53:12.761Z,21.12
2017-04-25T10:54:11.772Z,21.11
2017-04-25T10:55:12.055Z,21.15
2017-04-25T10:56:12.210Z,21.14
2017-04-25T10:57:12.826Z,21.14
2017-04-25T10:58:12.458Z,21.25
2017-04-25T10:59:13.345Z,21.17
2017-04-25T11:00:13.920Z,21.19
2017-04-25T11:01:12.604Z,21.18
2017-04-25T11:02:12.097Z,21.25
2017-04-25T11:03:13.859Z,21.20
2017-04-25T11:04:13.777Z,21.18
2017-04-25T11:05:13.327Z,21.16
2017-04-25T11:06:11.330Z,21.15
2017-04-25T11:07:12.832Z,21.18
2017-04-25T11:08:11.928Z,21.14
2017-04-25T11:09:13.703Z,21.12
2017-04-25T11:10:10.718Z,21.11
2017-04-25T11:11:13.562Z,21.63
2017-04-25T11:12:12.302Z,21.68
2017-04-25T11:13:12.318Z,21.66
2017-04-25T11:14:12.758Z,21.68
2017-04-25T11:15:11.921Z,21.68
2017-04-25T11:16:12.237Z,21.68
2017-04-25T11:17:09.839Z,21.67
2017-04-25T11:18:12.835Z,21.65
2017-04-25T11:19:12.711Z,21.65
2017-04-25T11:20:12.922Z,21.62
2017-04-25T11:21:12.390Z,21.62
2017-04-25T11:22:13.666Z,21.61
2017-04-25T11:23:13.460Z,21.59
2017-04-25T11:24:12.500Z,21.56
2017-04-25T11:25:13.180Z,21.22
2017-04-25T11:26:13.081Z,21.00
2017-04-25T11:27:10.640Z,20.93
2017-04-25T11:28:12.582Z,20.89
2017-04-25T11:29:13.300Z,20.87
2017-04-25T11:30:12.903Z,20.89
2017-04-25T11:31:13.788Z,20.84
2017-04-25T11:32:13.539Z,20.81
2017-04-25T11:33:14.382Z,20.80
2017-04-25T11:34:10.975Z,20.80
2017-04-25T11:35:12.567Z,20.78
2017-04-25T11:36:12.223Z,20.81
2017-04-25T11:37:14.011Z,20.75
2017-04-25T11:38:12.674Z,20.74
2017-04-25T11:39:12.207Z,20.72
2017-04-25T11:40:11.274Z,20.72
2017-04-25T11:41:12.529Z,20.93
2017-04-25T11:42:11.702Z,20.75
2017-04-25T11:43:11.561Z,20.71
2017-04-25T11:44:13.248Z,20.68
2017-04-25T11:45:12.260Z,20.67
2017-04-25T11:46:12.220Z,20.66
2017-04-25T11:47:13.737Z,20.65
2017-04-25T11:48:12.467Z,20.67
2017-04-25T11:49:16.020Z,20.64
2017-04-25T11:50:12.090Z,20.62
2017-04-25T11:51:12.653Z,20.61
2017-04-25T11:52:12.382Z,20.63
2017-04-25T11:53:13.263Z,20.60
2017-04-25T11:54:12.231Z,20.60
2017-04-25T11:55:12.956Z,20.59
2017-04-25T11:56:14.770Z,20.58
2017-04-25T11:57:12.229Z,20.61
2017-04-25T11:58:12.288Z,20.56
2017-04-25T11:59:12.499Z,20.55
2017-04-25T12:00:12.542Z,20.56
2017-04-25T12:01:12.750Z,20.55
2017-04-25T12:02:11.802Z,20.54
2017-04-25T12:03:12.413Z,20.58
2017-04-25T12:04:13.042Z,20.61
2017-04-25T12:05:12.845Z,20.56
2017-04-25T12:06:12.286Z,20.58
2017-04-25T12:07:13.133Z,20.53
2017-04-25T12:08:12.636Z,20.55
2017-04-25T12:09:12.417Z,20.53
2017-04-25T12:10:12.644Z,20.53
2017-04-25T12:11:13.725Z,20.52
2017-04-25T12:12:11.705Z,20.53
2017-04-25T12:13:13.534Z,20.52
2017-04-25T12:14:13.294Z,20.53
2017-04-25T12:15:14.055Z,20.52
2017-04-25T12:16:11.924Z,20.53
2017-04-25T12:17:12.864Z,20.51
2017-04-25T12:18:11.969Z,20.51
2017-04-25T12:19:12.176Z,20.51
2017-04-25T12:20:12.951Z,20.50
2017-04-25T12:21:12.002Z,20.50
2017-04-25T12:22:12.665Z,20.50
2017-04-25T12:23:12.249Z,20.49
2017-04-25T12:24:12.804Z,20.53
2017-04-25T12:25:12.814Z,20.48
2017-04-25T12:26:10.319Z,20.47
2017-04-25T12:27:12.612Z,20.47
2017-04-25T12:28:12.899Z,20.47
2017-04-25T12:29:11.969Z,20.47
2017-04-25T12:30:14.949Z,20.46
2017-04-25T12:31:12.163Z,20.46
2017-04-25T12:32:14.673Z,20.47
2017-04-25T12:33:13.098Z,20.47
2017-04-25T12:34:14.427Z,20.51
2017-04-25T12:35:14.465Z,20.46
2017-04-25T12:36:15.687Z,20.46
2017-04-25T12:37:14.092Z,20.46
2017-04-25T12:38:14.696Z,20.47
2017-04-25T12:39:10.286Z,20.45
2017-04-25T12:40:15.410Z,20.99
2017-04-25T12:41:14.594Z,21.04
2017-04-25T12:42:14.371Z,20.52
2017-04-25T12:43:13.093Z,20.48
2017-04-25T12:44:13.073Z,20.46
2017-04-25T12:45:12.255Z,20.45
2017-04-25T12:46:13.918Z,20.49
2017-04-25T12:47:13.143Z,20.44
2017-04-25T12:48:13.764Z,20.50
2017-04-25T12:49:12.253Z,20.42
2017-04-25T12:50:13.404Z,20.42
2017-04-25T12:51:13.974Z,20.43
2017-04-25T12:52:15.169Z,20.40